Time;durP1;ratioP1;P1;durP2;ratioP2;P2;SDS_P1;SDS_P2;PMS_P1;PMS_P2;Temp;Humidity;BMP_temperature;BMP_pressure;BME280_temperature;BME280_humidity;BME280_pressure;Samples;Min_cycle;Max_cycle;Signal;HPM_P1;HPM_P2
2022/06/14 00:00:57;;;;;;;5.68;2.00;;;9.50;99.90;;;;;;5086931;28;20131;-76
2022/06/14 00:03:23;;;;;;;3.20;1.60;;;9.40;99.90;;;;;;5089723;28;20051;-75
2022/06/14 00:05:49;;;;;;;4.75;1.73;;;9.30;99.90;;;;;;5078506;28;20469;-75
2022/06/14 00:08:16;;;;;;;4.03;1.60;;;9.30;99.90;;;;;;5091630;28;20114;-75
2022/06/14 00:10:42;;;;;;;9.70;2.03;;;9.30;99.90;;;;;;5091852;28;20489;-74
2022/06/14 00:13:09;;;;;;;4.53;1.70;;;9.20;99.90;;;;;;5084506;28;20066;-74
2022/06/14 00:15:35;;;;;;;4.70;1.67;;;9.20;99.90;;;;;;5083582;28;20037;-75
2022/06/14 00:18:01;;;;;;;4.72;1.70;;;9.20;99.90;;;;;;5067445;28;20417;-74
2022/06/14 00:20:27;;;;;;;6.68;1.77;;;9.10;99.90;;;;;;5074055;28;20051;-74
2022/06/14 00:22:52;;;;;;;4.63;1.95;;;9.10;99.90;;;;;;5088729;28;20040;-75
2022/06/14 00:25:40;;;;;;;3.45;1.67;;;9.10;99.90;;;;;;5064833;28;20044;-76
2022/06/14 00:28:08;;;;;;;3.33;1.45;;;9.20;99.90;;;;;;5074642;28;20056;-75
2022/06/14 00:30:35;;;;;;;3.22;1.75;;;9.10;99.90;;;;;;5085964;28;20041;-76
2022/06/14 00:33:00;;;;;;;3.97;1.83;;;9.00;99.90;;;;;;5082595;28;20059;-75
2022/06/14 00:35:27;;;;;;;5.20;2.22;;;8.80;99.90;;;;;;5093819;28;20048;-74
2022/06/14 00:37:53;;;;;;;6.07;1.90;;;8.80;99.90;;;;;;5058856;28;20090;-75
2022/06/14 00:40:23;;;;;;;4.55;2.20;;;8.80;99.90;;;;;;5070454;28;20471;-74
2022/06/14 00:42:49;;;;;;;7.15;2.20;;;8.90;99.90;;;;;;5077082;28;20102;-74
2022/06/14 00:45:15;;;;;;;3.65;1.70;;;9.00;99.90;;;;;;5088944;28;20055;-75
2022/06/14 00:47:51;;;;;;;4.50;2.10;;;9.10;99.90;;;;;;5081190;28;20044;-75
2022/06/14 00:50:22;;;;;;;2.80;1.58;;;9.00;99.90;;;;;;5076491;28;20393;-74
2022/06/14 00:52:53;;;;;;;4.32;1.85;;;9.10;99.90;;;;;;5093338;28;20050;-75
2022/06/14 00:55:27;;;;;;;4.13;1.70;;;9.00;99.90;;;;;;5088509;28;20511;-76
2022/06/14 00:58:02;;;;;;;2.92;1.45;;;8.90;99.90;;;;;;5085797;28;20044;-75
2022/06/14 01:00:33;;;;;;;3.35;1.90;;;8.80;99.90;;;;;;5080154;28;20825;-77
2022/06/14 01:03:05;;;;;;;4.05;1.75;;;8.70;99.90;;;;;;5072737;28;20053;-75
2022/06/14 01:06:05;;;;;;;7.20;2.53;;;8.60;99.90;;;;;;5090360;28;20055;-75
2022/06/14 01:08:27;;;;;;;4.65;2.22;;;8.40;99.90;;;;;;5072463;28;20057;-75
2022/06/14 01:10:53;;;;;;;3.63;2.10;;;8.40;99.90;;;;;;5081863;28;20071;-75
2022/06/14 01:13:20;;;;;;;3.45;1.88;;;8.40;99.90;;;;;;5083872;28;20500;-75
2022/06/14 01:15:49;;;;;;;5.70;2.65;;;8.40;99.90;;;;;;5087939;28;20048;-75
2022/06/14 01:18:16;;;;;;;5.20;2.28;;;8.30;99.90;;;;;;5075232;28;20106;-75
2022/06/14 01:20:42;;;;;;;3.20;1.80;;;8.40;99.90;;;;;;5084367;28;20123;-75
2022/06/14 01:23:11;;;;;;;6.20;2.10;;;8.50;99.90;;;;;;5054732;28;20044;-75
2022/06/14 01:25:42;;;;;;;3.70;2.25;;;8.50;99.90;;;;;;5085635;28;20462;-75
2022/06/14 01:28:09;;;;;;;5.15;2.10;;;8.50;99.90;;;;;;5055629;28;20084;-75
2022/06/14 01:30:45;;;;;;;5.68;2.10;;;8.50;99.90;;;;;;5068343;28;20091;-76
2022/06/14 01:33:16;;;;;;;4.72;2.58;;;8.50;99.90;;;;;;5066709;28;20045;-75
2022/06/14 01:35:48;;;;;;;9.57;2.55;;;8.50;99.90;;;;;;5088715;28;20053;-75
2022/06/14 01:38:16;;;;;;;5.88;2.35;;;8.50;99.90;;;;;;5039884;28;20055;-76
2022/06/14 01:41:13;;;;;;;5.28;2.25;;;8.40;99.90;;;;;;5071691;28;20080;-75
2022/06/14 01:43:41;;;;;;;4.70;2.30;;;8.40;99.90;;;;;;5084332;28;20044;-75
2022/06/14 01:46:53;;;;;;;6.05;2.30;;;8.30;99.90;;;;;;5074316;28;20052;-75
2022/06/14 01:52:31;;;;;;;4.70;2.17;;;8.20;99.90;;;;;;5071879;28;20060;-75
2022/06/14 01:55:12;;;;;;;12.40;3.45;;;8.30;99.90;;;;;;5054961;28;20454;-76
2022/06/14 01:58:04;;;;;;;9.98;2.88;;;8.20;99.90;;;;;;5089898;28;20052;-75
2022/06/14 02:00:41;;;;;;;7.80;3.03;;;8.20;99.90;;;;;;5060373;28;20049;-75
2022/06/14 02:06:34;;;;;;;4.70;2.30;;;8.20;99.90;;;;;;5078462;28;20134;-75
2022/06/14 02:09:11;;;;;;;8.45;2.88;;;8.10;99.90;;;;;;5066488;28;20087;-75
2022/06/14 02:11:37;;;;;;;5.30;2.80;;;8.10;99.90;;;;;;5045168;28;20139;-76
2022/06/14 02:14:09;;;;;;;7.18;3.05;;;8.10;99.90;;;;;;5086905;28;20127;-75
2022/06/14 02:17:00;;;;;;;7.05;2.88;;;8.00;99.90;;;;;;5071498;28;20472;-75
2022/06/14 02:19:34;;;;;;;7.25;3.72;;;8.00;99.90;;;;;;5058530;28;20052;-77
2022/06/14 02:22:11;;;;;;;7.20;2.78;;;8.10;99.90;;;;;;5083328;28;20051;-77
2022/06/14 02:25:01;;;;;;;6.45;2.70;;;8.10;99.90;;;;;;5056100;28;20052;-75
2022/06/14 02:27:50;;;;;;;6.07;3.00;;;8.10;99.90;;;;;;5053548;28;20131;-75
2022/06/14 02:30:24;;;;;;;3.80;2.67;;;8.10;99.90;;;;;;5079058;28;20048;-75
2022/06/14 02:33:17;;;;;;;5.00;2.60;;;8.10;99.90;;;;;;5085525;28;20056;-74
2022/06/14 02:35:52;;;;;;;6.75;3.00;;;8.10;99.90;;;;;;5079121;28;20048;-74
2022/06/14 02:38:44;;;;;;;8.35;2.30;;;8.10;99.90;;;;;;5057365;28;20053;-74
2022/06/14 02:41:20;;;;;;;4.68;2.75;;;8.10;99.90;;;;;;5059517;28;20052;-76
2022/06/14 02:43:49;;;;;;;;;;;8.10;99.90;;;;;;5075044;28;20058;-76
2022/06/14 02:46:24;;;;;;;5.15;2.20;;;8.20;99.90;;;;;;5083308;28;19931;-75
2022/06/14 02:49:04;;;;;;;5.32;2.30;;;8.20;99.90;;;;;;5070995;28;20037;-76
2022/06/14 02:51:37;;;;;;;4.22;2.60;;;8.30;99.90;;;;;;5056213;28;20036;-75
2022/06/14 02:54:14;;;;;;;3.95;2.40;;;8.30;99.90;;;;;;5066851;28;20048;-75
2022/06/14 02:57:08;;;;;;;6.93;2.67;;;8.30;99.90;;;;;;5059871;28;20137;-75
2022/06/14 02:59:49;;;;;;;7.07;2.40;;;8.30;99.90;;;;;;5075104;28;20169;-75
2022/06/14 03:02:21;;;;;;;4.90;2.20;;;8.30;99.90;;;;;;5038983;28;20041;-75
2022/06/14 03:05:15;;;;;;;4.95;2.50;;;8.40;99.90;;;;;;5047779;28;20051;-75
2022/06/14 03:07:48;;;;;;;8.40;2.78;;;8.40;99.90;;;;;;5063933;28;20063;-75
2022/06/14 03:10:13;;;;;;;4.50;2.63;;;8.40;99.90;;;;;;5088233;28;20044;-75
2022/06/14 03:12:59;;;;;;;6.57;2.90;;;8.40;99.90;;;;;;5059477;28;20045;-76
2022/06/14 03:15:47;;;;;;;5.80;2.55;;;8.40;99.90;;;;;;5074677;28;20054;-75
2022/06/14 03:18:38;;;;;;;7.10;3.72;;;8.50;99.90;;;;;;5082651;28;20392;-74
2022/06/14 03:21:18;;;;;;;6.07;3.00;;;8.50;99.90;;;;;;5074660;28;20382;-76
2022/06/14 03:23:55;;;;;;;6.95;3.38;;;8.50;99.90;;;;;;5055894;28;20049;-74
2022/06/14 03:26:21;;;;;;;7.95;3.33;;;8.60;99.90;;;;;;5082514;28;20106;-75
2022/06/14 03:28:55;;;;;;;7.20;3.25;;;8.50;99.90;;;;;;5083239;28;20040;-76
2022/06/14 03:31:33;;;;;;;10.10;4.28;;;8.60;99.90;;;;;;5080830;28;20407;-75
2022/06/14 03:34:11;;;;;;;6.60;3.35;;;8.70;99.90;;;;;;5080986;28;20047;-74
2022/06/14 03:36:37;;;;;;;5.05;2.83;;;8.80;99.90;;;;;;5086772;28;20266;-75
2022/06/14 03:39:08;;;;;;;6.90;3.33;;;8.80;99.90;;;;;;5084390;28;20517;-75
2022/06/14 03:41:38;;;;;;;6.93;3.20;;;8.80;99.90;;;;;;5088721;28;20055;-75
2022/06/14 03:44:05;;;;;;;9.98;3.50;;;9.00;99.90;;;;;;5079165;28;20051;-75
2022/06/14 03:46:36;;;;;;;6.13;3.08;;;8.90;99.90;;;;;;5090425;28;20063;-75
2022/06/14 03:49:12;;;;;;;7.72;2.88;;;9.00;99.90;;;;;;5065920;28;20036;-75
2022/06/14 03:51:58;;;;;;;7.45;3.17;;;9.00;99.90;;;;;;5076574;28;20090;-76
2022/06/14 03:54:45;;;;;;;8.85;3.20;;;9.10;99.90;;;;;;5088575;28;20044;-75
2022/06/14 03:57:40;;;;;;;5.93;3.60;;;9.10;99.90;;;;;;5089605;28;20047;-75
2022/06/14 04:00:12;;;;;;;4.90;3.15;;;9.20;99.90;;;;;;5081141;28;20048;-75
2022/06/14 04:02:53;;;;;;;5.93;2.78;;;9.20;99.90;;;;;;5079206;28;20047;-76
2022/06/14 04:05:46;;;;;;;7.10;2.97;;;9.30;99.90;;;;;;5080169;28;20122;-76
2022/06/14 04:08:44;;;;;;;6.93;3.25;;;9.30;99.90;;;;;;5081519;28;20496;-75
2022/06/14 04:11:32;;;;;;;5.65;3.03;;;9.30;99.90;;;;;;5084432;28;20511;-76
2022/06/14 04:14:25;;;;;;;6.28;2.80;;;9.40;99.90;;;;;;5083391;28;20490;-75
2022/06/14 04:17:15;;;;;;;7.13;3.08;;;9.40;99.90;;;;;;5085828;28;20046;-75
2022/06/14 04:19:49;;;;;;;5.53;2.60;;;9.50;99.90;;;;;;5089000;28;20084;-76
2022/06/14 04:22:46;;;;;;;7.07;3.15;;;9.40;99.90;;;;;;5078051;28;20059;-75
2022/06/14 04:25:26;;;;;;;6.82;2.78;;;9.40;99.90;;;;;;5065797;28;20088;-76
2022/06/14 04:28:16;;;;;;;7.72;3.28;;;9.40;99.90;;;;;;5055845;28;20117;-76
2022/06/14 04:30:54;;;;;;;4.97;2.80;;;9.40;99.90;;;;;;5071974;28;20055;-75
2022/06/14 04:33:34;;;;;;;6.93;2.90;;;9.40;99.90;;;;;;5078246;28;20088;-75
2022/06/14 04:36:09;;;;;;;7.07;2.78;;;9.40;99.90;;;;;;5074408;28;20056;-75
2022/06/14 04:38:42;;;;;;;6.30;3.28;;;9.40;99.90;;;;;;5082920;28;20511;-75
2022/06/14 04:41:20;;;;;;;5.40;3.17;;;9.40;99.90;;;;;;5093589;28;20044;-75
2022/06/14 04:44:10;;;;;;;6.82;3.00;;;9.60;99.90;;;;;;5081874;28;20047;-76
2022/06/14 04:47:08;;;;;;;6.03;3.00;;;9.50;99.90;;;;;;5069373;28;20052;-75
2022/06/14 04:49:57;;;;;;;5.95;3.03;;;9.50;99.90;;;;;;5086379;28;20108;-75
2022/06/14 04:52:28;;;;;;;7.45;3.22;;;9.50;99.90;;;;;;5055005;28;20497;-77
2022/06/14 04:55:09;;;;;;;6.10;3.22;;;9.50;99.90;;;;;;5056203;28;20072;-76
2022/06/14 04:57:44;;;;;;;6.75;3.28;;;9.60;99.90;;;;;;5073966;28;20079;-76
2022/06/14 05:00:13;;;;;;;5.75;3.33;;;9.60;99.90;;;;;;5077943;28;20044;-75
2022/06/14 05:02:51;;;;;;;6.18;3.55;;;9.70;99.90;;;;;;5083372;28;20052;-75
2022/06/14 05:05:21;;;;;;;8.18;3.67;;;9.70;99.90;;;;;;5068822;28;20070;-75
2022/06/14 05:07:59;;;;;;;9.18;3.97;;;9.80;99.90;;;;;;5083376;28;20112;-77
2022/06/14 05:10:34;;;;;;;9.32;3.50;;;9.90;99.90;;;;;;5073199;28;20439;-75
2022/06/14 05:13:05;;;;;;;9.77;4.13;;;10.10;99.90;;;;;;5079433;28;20049;-75
2022/06/14 05:15:37;;;;;;;10.02;3.70;;;10.10;99.90;;;;;;5086974;28;20104;-77
2022/06/14 05:18:22;;;;;;;8.65;3.38;;;10.30;99.90;;;;;;5063967;28;20052;-76
2022/06/14 05:21:26;;;;;;;10.60;4.05;;;10.30;99.90;;;;;;5093305;28;20052;-76
2022/06/14 05:23:54;;;;;;;9.50;3.25;;;10.50;99.90;;;;;;4976478;28;20083;-76
2022/06/14 05:26:25;;;;;;;6.00;3.63;;;10.70;99.90;;;;;;5052934;28;20100;-76
2022/06/14 05:29:13;;;;;;;8.43;3.22;;;10.60;99.90;;;;;;5087870;28;20097;-75
2022/06/14 05:31:44;;;;;;;7.18;3.33;;;10.70;99.90;;;;;;5084696;28;20062;-76
2022/06/14 05:34:39;;;;;;;7.00;3.72;;;10.90;99.90;;;;;;5074761;28;20147;-75
2022/06/14 05:37:23;;;;;;;8.07;3.30;;;11.00;99.90;;;;;;5053704;28;20057;-75
2022/06/14 05:40:09;;;;;;;7.50;3.35;;;11.10;99.90;;;;;;5092320;28;20044;-75
2022/06/14 05:42:43;;;;;;;5.53;3.63;;;11.20;99.90;;;;;;5085187;28;20101;-76
2022/06/14 05:45:12;;;;;;;7.47;3.30;;;11.30;99.90;;;;;;5077321;28;20047;-75
2022/06/14 05:47:54;;;;;;;6.07;3.38;;;11.30;99.90;;;;;;5083883;28;20077;-76
2022/06/14 05:50:28;;;;;;;9.05;3.42;;;11.40;99.90;;;;;;5055941;28;20056;-76
2022/06/14 05:53:02;;;;;;;9.35;3.83;;;11.60;99.90;;;;;;5087607;28;20083;-75
2022/06/14 05:55:38;;;;;;;9.25;3.35;;;11.70;99.90;;;;;;5079700;28;20052;-74
2022/06/14 05:58:45;;;;;;;7.15;3.08;;;11.70;99.90;;;;;;5089972;28;21042;-75
2022/06/14 06:01:18;;;;;;;7.30;3.03;;;11.90;99.90;;;;;;5071061;28;20045;-76
2022/06/14 06:04:01;;;;;;;9.27;3.40;;;12.00;99.90;;;;;;5084158;28;20055;-76
2022/06/14 06:06:40;;;;;;;6.30;2.40;;;12.00;99.90;;;;;;5066816;28;20082;-76
2022/06/14 06:09:11;;;;;;;7.57;2.60;;;12.10;99.90;;;;;;5053752;28;20526;-75
2022/06/14 06:11:43;;;;;;;10.70;3.42;;;12.20;99.90;;;;;;5087941;28;20064;-75
2022/06/14 06:14:18;;;;;;;6.78;2.70;;;12.30;99.90;;;;;;5061547;28;20504;-74
2022/06/14 06:17:00;;;;;;;4.47;2.40;;;12.40;99.90;;;;;;5080623;28;20169;-70
2022/06/14 06:19:32;;;;;;;6.47;2.50;;;12.50;99.90;;;;;;5084070;28;20047;-69
2022/06/14 06:22:15;;;;;;;7.28;2.50;;;12.60;99.90;;;;;;5081852;28;20052;-70
2022/06/14 06:25:00;;;;;;;5.43;2.50;;;12.70;99.90;;;;;;5074861;28;20108;-70
2022/06/14 06:27:46;;;;;;;7.57;3.30;;;12.80;99.90;;;;;;5070314;28;20728;-70
2022/06/14 06:30:26;;;;;;;5.82;2.22;;;12.90;99.90;;;;;;5087321;28;20043;-70
2022/06/14 06:32:53;;;;;;;7.93;2.83;;;13.00;99.90;;;;;;5081428;28;20535;-70
2022/06/14 06:35:21;;;;;;;7.68;2.50;;;13.10;99.90;;;;;;5071221;28;20048;-71
2022/06/14 06:37:54;;;;;;;6.97;2.33;;;13.20;99.90;;;;;;5059903;28;20084;-70
2022/06/14 06:40:24;;;;;;;8.15;2.40;;;13.20;99.90;;;;;;5083087;28;20104;-70
2022/06/14 06:43:01;;;;;;;4.55;2.03;;;13.30;99.90;;;;;;5083931;28;20484;-71
2022/06/14 06:45:34;;;;;;;8.27;2.35;;;13.40;99.90;;;;;;5080641;28;20076;-71
2022/06/14 06:48:11;;;;;;;6.63;2.58;;;13.50;99.90;;;;;;5083079;28;20048;-70
2022/06/14 06:50:53;;;;;;;4.57;1.98;;;13.60;99.90;;;;;;5084577;28;20113;-70
2022/06/14 06:53:20;;;;;;;7.25;2.78;;;13.70;99.90;;;;;;5056434;28;20481;-71
2022/06/14 06:56:18;;;;;;;7.85;2.30;;;13.70;99.90;;;;;;5079755;28;20523;-70
2022/06/14 06:58:51;;;;;;;5.55;2.25;;;13.80;99.90;;;;;;5055591;28;20067;-70
2022/06/14 07:01:31;;;;;;;6.10;2.35;;;13.90;99.90;;;;;;5075997;28;20091;-70
2022/06/14 07:04:20;;;;;;;5.75;1.80;;;14.00;99.90;;;;;;5081464;28;20450;-70
2022/06/14 07:06:55;;;;;;;5.03;1.52;;;14.00;99.90;;;;;;5072625;28;20194;-71
2022/06/14 07:09:29;;;;;;;4.00;1.80;;;14.20;99.90;;;;;;5083788;28;20040;-70
2022/06/14 07:12:01;;;;;;;5.00;1.83;;;14.30;99.90;;;;;;5083077;28;20044;-71
2022/06/14 07:14:50;;;;;;;4.10;1.70;;;14.40;99.90;;;;;;5072762;28;20110;-69
2022/06/14 07:17:25;;;;;;;6.07;1.90;;;14.40;99.90;;;;;;5058287;28;20119;-71
2022/06/14 07:20:10;;;;;;;5.10;1.55;;;14.40;99.90;;;;;;5070315;28;20040;-70
2022/06/14 07:22:42;;;;;;;4.50;1.77;;;14.50;99.90;;;;;;5088937;28;20044;-71
2022/06/14 07:25:18;;;;;;;6.40;2.00;;;14.60;99.90;;;;;;5077075;28;20041;-72
2022/06/14 07:27:59;;;;;;;5.22;2.10;;;14.70;99.90;;;;;;5048444;28;20505;-71
2022/06/14 07:30:49;;;;;;;6.90;1.98;;;14.80;99.90;;;;;;5073475;28;20468;-71
2022/06/14 07:33:17;;;;;;;5.10;1.50;;;15.00;99.90;;;;;;5054662;28;20476;-70
2022/06/14 07:35:56;;;;;;;4.72;1.60;;;15.20;99.90;;;;;;5074717;28;20044;-71
2022/06/14 07:38:49;;;;;;;4.68;1.40;;;15.30;99.90;;;;;;5082109;28;20101;-71
2022/06/14 07:41:43;;;;;;;4.95;1.40;;;15.20;99.90;;;;;;5072054;28;20132;-70
2022/06/14 07:44:50;;;;;;;3.90;1.98;;;15.10;99.90;;;;;;5049889;28;20118;-71
2022/06/14 07:47:39;;;;;;;3.95;1.30;;;15.00;99.90;;;;;;5081795;28;20437;-70
2022/06/14 07:50:13;;;;;;;5.35;1.40;;;15.10;99.90;;;;;;5018304;28;20049;-70
2022/06/14 07:52:53;;;;;;;4.75;1.83;;;15.30;99.90;;;;;;5083891;28;20105;-70
2022/06/14 07:55:20;;;;;;;5.18;1.83;;;15.40;99.90;;;;;;5077398;28;20129;-70
2022/06/14 07:57:50;;;;;;;3.67;1.65;;;15.30;99.90;;;;;;5078644;28;20048;-71
2022/06/14 08:01:08;;;;;;;5.20;1.45;;;15.30;99.90;;;;;;5082606;28;20143;-71
2022/06/14 08:03:37;;;;;;;;;;;15.20;99.90;;;;;;5073821;28;20063;-70
2022/06/14 08:06:13;;;;;;;3.38;1.20;;;15.20;99.90;;;;;;5088702;28;19920;-71
2022/06/14 08:08:43;;;;;;;3.00;1.23;;;15.40;99.90;;;;;;5082321;28;20568;-71
2022/06/14 08:11:25;;;;;;;3.42;1.10;;;15.60;99.90;;;;;;5093619;28;20071;-70
2022/06/14 08:13:56;;;;;;;4.15;1.42;;;15.70;99.90;;;;;;5090246;28;20036;-70
2022/06/14 08:16:25;;;;;;;2.00;1.00;;;15.60;99.90;;;;;;5093738;28;20397;-70
2022/06/14 08:18:57;;;;;;;3.65;1.30;;;15.50;99.90;;;;;;5081011;28;20048;-71
2022/06/14 08:21:35;;;;;;;3.67;1.40;;;15.40;99.90;;;;;;5090342;28;20449;-71
2022/06/14 08:24:19;;;;;;;3.42;1.33;;;15.30;99.90;;;;;;5086840;28;20059;-70
2022/06/14 08:26:51;;;;;;;5.60;1.70;;;15.30;99.90;;;;;;5073596;28;20400;-70
2022/06/14 08:29:36;;;;;;;2.95;1.15;;;15.30;99.90;;;;;;5078065;28;20131;-69
2022/06/14 08:32:44;;;;;;;3.95;1.23;;;15.30;99.90;;;;;;5074998;28;20070;-72
2022/06/14 08:35:18;;;;;;;3.00;1.13;;;15.30;99.90;;;;;;5073406;28;20056;-70
2022/06/14 08:37:49;;;;;;;3.78;1.35;;;15.40;99.90;;;;;;5076705;28;20048;-70
2022/06/14 08:40:55;;;;;;;2.85;1.17;;;15.70;99.90;;;;;;5080067;28;20047;-71
2022/06/14 08:43:42;;;;;;;3.00;1.10;;;15.90;99.90;;;;;;5079228;28;20044;-70
2022/06/14 08:46:38;;;;;;;2.50;1.00;;;15.90;99.90;;;;;;5079066;28;20044;-71
2022/06/14 08:49:20;;;;;;;6.13;1.60;;;15.80;99.90;;;;;;5075398;28;20044;-69
2022/06/14 08:51:58;;;;;;;4.20;1.63;;;15.80;99.90;;;;;;5056255;28;20055;-70
2022/06/14 08:54:24;;;;;;;4.70;1.77;;;16.00;99.90;;;;;;5080642;28;20435;-70
2022/06/14 08:57:20;;;;;;;3.85;1.35;;;16.10;99.90;;;;;;5068809;28;20048;-72
2022/06/14 09:00:06;;;;;;;2.88;1.30;;;16.30;99.90;;;;;;5077595;28;20059;-70
2022/06/14 09:02:45;;;;;;;;;;;16.50;99.90;;;;;;5088725;28;20112;-71
2022/06/14 09:05:32;;;;;;;5.60;1.20;;;16.60;99.90;;;;;;5092635;28;19931;-70
2022/06/14 09:08:20;;;;;;;3.42;1.10;;;16.50;99.90;;;;;;5092125;28;20056;-70
2022/06/14 09:11:03;;;;;;;2.20;1.00;;;16.50;99.90;;;;;;5092188;28;20044;-70
2022/06/14 09:13:37;;;;;;;3.20;1.40;;;16.30;99.90;;;;;;5091964;28;20127;-71
2022/06/14 09:16:24;;;;;;;3.25;1.20;;;16.20;99.90;;;;;;5074058;28;20048;-70
2022/06/14 09:18:53;;;;;;;3.67;1.20;;;16.00;99.90;;;;;;5092458;28;20054;-71
2022/06/14 09:21:55;;;;;;;2.33;1.08;;;15.90;99.90;;;;;;5091705;28;20048;-70
2022/06/14 09:24:42;;;;;;;2.63;0.80;;;15.80;99.90;;;;;;5091237;28;20136;-70
2022/06/14 09:27:35;;;;;;;2.40;1.05;;;15.80;99.90;;;;;;5092478;28;20048;-70
2022/06/14 09:30:42;;;;;;;3.78;0.93;;;15.80;99.90;;;;;;5080621;28;20079;-71
2022/06/14 09:33:12;;;;;;;3.78;1.00;;;15.80;99.90;;;;;;5008177;28;20045;-72
2022/06/14 09:36:06;;;;;;;2.78;1.10;;;16.00;99.90;;;;;;5009377;28;20054;-71
2022/06/14 09:38:51;;;;;;;3.80;0.98;;;16.30;99.90;;;;;;5052917;28;20083;-72
2022/06/14 09:42:08;;;;;;;3.17;0.98;;;16.70;99.90;;;;;;5091682;28;20047;-72
2022/06/14 09:45:13;;;;;;;1.88;0.90;;;17.10;99.90;;;;;;5037354;28;20052;-70
2022/06/14 09:47:44;;;;;;;2.30;0.90;;;17.40;99.90;;;;;;5058975;28;20109;-74
2022/06/14 09:50:42;;;;;;;2.80;1.00;;;17.50;99.90;;;;;;5090136;28;20048;-71
2022/06/14 09:53:44;;;;;;;2.42;1.00;;;17.50;99.90;;;;;;5032025;28;20135;-70
2022/06/14 09:56:19;;;;;;;3.20;1.00;;;17.40;99.90;;;;;;5087131;28;20052;-69
2022/06/14 09:59:05;;;;;;;3.20;1.15;;;17.30;99.90;;;;;;5075109;28;20057;-70
2022/06/14 10:01:38;;;;;;;2.85;1.10;;;17.20;99.90;;;;;;5069462;28;20052;-70
2022/06/14 10:04:41;;;;;;;2.30;1.30;;;17.10;99.90;;;;;;5074043;28;20048;-69
2022/06/14 10:07:27;;;;;;;2.63;1.05;;;17.00;99.90;;;;;;5072459;28;20044;-70
2022/06/14 10:10:22;;;;;;;1.90;0.90;;;16.90;99.90;;;;;;5085216;28;20117;-72
2022/06/14 10:13:05;;;;;;;1.95;0.80;;;16.80;99.90;;;;;;5052612;28;20056;-74
2022/06/14 10:15:56;;;;;;;4.57;1.10;;;16.70;99.90;;;;;;5079197;28;20041;-71
2022/06/14 10:18:39;;;;;;;4.90;1.45;;;16.80;99.90;;;;;;5071233;28;20504;-71
2022/06/14 10:21:16;;;;;;;2.40;1.30;;;16.90;99.90;;;;;;5080920;28;20094;-72
2022/06/14 10:24:05;;;;;;;2.58;1.00;;;17.00;99.90;;;;;;5085592;28;20078;-70
2022/06/14 10:29:35;;;;;;;2.95;0.98;;;17.40;99.90;;;;;;5069546;28;20048;-71
2022/06/14 10:32:12;;;;;;;2.78;1.13;;;17.50;99.90;;;;;;5073057;28;20149;-71
2022/06/14 10:35:00;;;;;;;6.55;1.08;;;17.70;99.90;;;;;;5080814;28;20048;-72
2022/06/14 10:37:41;;;;;;;3.15;0.85;;;17.90;99.90;;;;;;5076994;28;20119;-72
2022/06/14 10:40:44;;;;;;;1.98;1.17;;;18.10;99.90;;;;;;5068635;28;20086;-71
2022/06/14 10:43:20;;;;;;;3.22;1.38;;;18.30;99.90;;;;;;5069202;28;20110;-71
2022/06/14 10:46:00;;;;;;;2.10;0.80;;;18.30;99.90;;;;;;5084412;28;20048;-70
2022/06/14 10:48:50;;;;;;;2.38;1.00;;;18.30;99.90;;;;;;5083799;28;20041;-71
2022/06/14 10:51:35;;;;;;;2.58;0.90;;;18.20;99.90;;;;;;5081148;28;20089;-70
2022/06/14 10:54:29;;;;;;;2.55;1.00;;;18.00;99.90;;;;;;5081165;28;20050;-71
2022/06/14 10:57:21;;;;;;;2.70;0.88;;;17.90;99.90;;;;;;5081224;28;20056;-71
2022/06/14 11:00:08;;;;;;;6.60;1.38;;;17.90;99.90;;;;;;5043791;28;20064;-73
2022/06/14 11:03:07;;;;;;;3.83;1.00;;;17.90;99.90;;;;;;5079455;28;20132;-70
2022/06/14 11:06:06;;;;;;;2.55;0.90;;;18.00;99.90;;;;;;5086996;28;20063;-70
2022/06/14 11:08:50;;;;;;;2.22;0.90;;;17.90;99.90;;;;;;5080783;28;20076;-69
2022/06/14 11:11:19;;;;;;;2.75;1.10;;;17.80;99.90;;;;;;5080879;28;20040;-70
2022/06/14 11:13:48;;;;;;;3.00;1.30;;;17.70;99.90;;;;;;5076796;28;20036;-70
2022/06/14 11:16:35;;;;;;;3.95;1.40;;;17.70;99.90;;;;;;5086466;28;20059;-71
2022/06/14 11:19:37;;;;;;;3.13;1.20;;;17.60;99.90;;;;;;5088900;28;20434;-71
2022/06/14 11:22:36;;;;;;;2.83;0.80;;;17.40;99.90;;;;;;5070663;28;20044;-71
2022/06/14 11:25:12;;;;;;;3.60;1.08;;;17.40;99.90;;;;;;5071864;28;20043;-69
2022/06/14 11:28:04;;;;;;;3.45;0.95;;;17.40;99.90;;;;;;5089648;28;20136;-70
2022/06/14 11:30:49;;;;;;;3.05;1.15;;;17.60;99.90;;;;;;5062766;28;20428;-74
2022/06/14 11:33:29;;;;;;;2.58;1.05;;;17.90;99.90;;;;;;5086005;28;20052;-72
2022/06/14 11:36:24;;;;;;;3.83;1.00;;;18.10;99.90;;;;;;5087832;28;20079;-72
2022/06/14 11:39:12;;;;;;;3.72;0.90;;;18.30;99.90;;;;;;5084103;28;20052;-73
2022/06/14 11:41:44;;;;;;;2.03;1.10;;;18.50;99.90;;;;;;5088052;28;20062;-72
2022/06/14 11:44:37;;;;;;;2.10;0.90;;;18.50;99.90;;;;;;5091845;28;20080;-72
2022/06/14 11:47:16;;;;;;;3.42;0.90;;;18.60;99.90;;;;;;5083459;28;20141;-71
2022/06/14 11:50:13;;;;;;;2.08;0.90;;;18.60;99.90;;;;;;5091074;28;20044;-72
2022/06/14 11:53:03;;;;;;;2.15;1.08;;;18.50;99.90;;;;;;5086037;28;20373;-70
2022/06/14 11:55:39;;;;;;;2.55;0.90;;;18.50;99.90;;;;;;5090454;28;20043;-72
2022/06/14 11:58:13;;;;;;;2.30;0.90;;;18.50;99.90;;;;;;5074031;28;20047;-74
2022/06/14 12:01:09;;;;;;;2.95;0.95;;;18.40;99.90;;;;;;5087184;28;20044;-75
2022/06/14 12:04:01;;;;;;;3.43;1.03;;;18.30;99.90;;;;;;5071190;28;20498;-73
2022/06/14 12:06:50;;;;;;;2.10;1.00;;;18.20;99.90;;;;;;5085382;28;20389;-72
2022/06/14 12:09:31;;;;;;;2.80;1.20;;;18.10;99.90;;;;;;5052219;28;20156;-71
2022/06/14 12:12:09;;;;;;;2.13;1.00;;;18.20;99.90;;;;;;5089070;28;20499;-71
2022/06/14 12:15:00;;;;;;;2.42;1.05;;;18.50;99.90;;;;;;5072517;28;20448;-70
2022/06/14 12:17:50;;;;;;;3.63;1.17;;;18.70;99.90;;;;;;5073723;28;20048;-71
2022/06/14 12:20:21;;;;;;;3.13;0.93;;;18.90;99.90;;;;;;5073026;28;20066;-73
2022/06/14 12:23:08;;;;;;;2.25;1.05;;;19.00;99.90;;;;;;5081254;28;20059;-72
2022/06/14 12:29:13;;;;;;;2.00;0.90;;;19.00;99.90;;;;;;5050507;28;20060;-72
2022/06/14 12:31:49;;;;;;;3.30;1.00;;;18.90;99.90;;;;;;5068730;28;20052;-73
2022/06/14 12:34:29;;;;;;;2.58;0.88;;;18.90;99.90;;;;;;5092018;28;20446;-71
2022/06/14 12:36:57;;;;;;;2.88;1.00;;;18.90;99.90;;;;;;5092329;28;20097;-72
2022/06/14 12:39:29;;;;;;;1.85;0.90;;;19.00;99.90;;;;;;5084167;28;20084;-72
2022/06/14 12:41:58;;;;;;;1.75;0.88;;;19.00;99.90;;;;;;5077378;28;20048;-71
2022/06/14 12:45:03;;;;;;;3.05;0.90;;;19.00;99.90;;;;;;5088236;28;20040;-71
2022/06/14 12:47:35;;;;;;;2.72;0.90;;;19.00;99.90;;;;;;5084161;28;20056;-73
2022/06/14 12:50:20;;;;;;;1.98;0.90;;;18.90;99.90;;;;;;5075891;28;20411;-73
2022/06/14 12:52:54;;;;;;;1.95;0.93;;;18.90;99.90;;;;;;5083581;28;20484;-74
2022/06/14 12:55:43;;;;;;;2.63;0.90;;;18.90;99.90;;;;;;5080768;28;20079;-73
2022/06/14 12:58:20;;;;;;;2.58;0.80;;;19.00;99.90;;;;;;5065782;28;20102;-73
2022/06/14 13:00:53;;;;;;;3.30;1.10;;;18.70;99.90;;;;;;5076649;28;20097;-77
2022/06/14 13:03:31;;;;;;;3.15;1.10;;;18.60;99.90;;;;;;5054580;28;20056;-73
2022/06/14 13:06:41;;;;;;;2.85;0.90;;;18.60;99.90;;;;;;5078967;28;20083;-74
2022/06/14 13:09:21;;;;;;;2.25;1.05;;;18.60;99.90;;;;;;5068757;28;20056;-73
2022/06/14 13:12:18;;;;;;;1.65;0.73;;;18.50;99.90;;;;;;5087478;28;20044;-73
2022/06/14 13:15:12;;;;;;;3.05;0.93;;;18.60;99.90;;;;;;5079996;28;20044;-71
2022/06/14 13:18:07;;;;;;;3.40;1.45;;;18.60;99.90;;;;;;5056939;28;20135;-73
2022/06/14 13:20:44;;;;;;;2.03;0.70;;;18.60;99.90;;;;;;5072163;28;20231;-70
2022/06/14 13:23:44;;;;;;;1.90;0.80;;;18.50;99.90;;;;;;5067458;28;20056;-70
2022/06/14 13:26:40;;;;;;;1.70;0.70;;;18.50;99.90;;;;;;5070575;28;20083;-73
2022/06/14 13:29:17;;;;;;;1.88;1.00;;;18.50;99.90;;;;;;5074631;28;20401;-74
2022/06/14 13:32:02;;;;;;;2.10;0.88;;;18.50;99.90;;;;;;5086741;28;20488;-73
2022/06/14 13:34:37;;;;;;;2.65;1.35;;;18.60;99.90;;;;;;5085873;28;20071;-74
2022/06/14 13:37:11;;;;;;;4.10;0.82;;;18.80;99.90;;;;;;5064896;28;20137;-73
2022/06/14 13:39:42;;;;;;;2.00;0.90;;;19.00;99.90;;;;;;5053114;28;20404;-71
2022/06/14 13:42:31;;;;;;;2.08;0.82;;;19.10;99.90;;;;;;5081893;28;20230;-75
2022/06/14 13:45:02;;;;;;;2.17;0.80;;;19.20;99.90;;;;;;5055963;28;20056;-72
2022/06/14 13:47:37;;;;;;;2.20;0.98;;;19.40;99.90;;;;;;5083268;28;20145;-71
2022/06/14 13:50:17;;;;;;;2.45;0.93;;;19.50;99.90;;;;;;5078144;28;20074;-75
2022/06/14 13:53:12;;;;;;;1.35;0.70;;;19.70;99.90;;;;;;5077949;28;20171;-72
2022/06/14 13:55:47;;;;;;;1.77;0.90;;;19.80;99.90;;;;;;5075218;28;20512;-73
2022/06/14 13:58:28;;;;;;;2.13;1.00;;;19.90;99.90;;;;;;5078852;28;20051;-73
2022/06/14 14:01:07;;;;;;;3.78;0.80;;;19.80;99.90;;;;;;5076550;28;20062;-73
2022/06/14 14:03:35;;;;;;;1.40;0.73;;;19.70;99.90;;;;;;5054405;28;20118;-73
2022/06/14 14:06:11;;;;;;;1.95;0.70;;;19.80;99.90;;;;;;5081185;28;20052;-74
2022/06/14 14:09:02;;;;;;;3.47;1.00;;;19.90;99.90;;;;;;5081859;28;20048;-74
2022/06/14 14:11:50;;;;;;;2.55;1.00;;;20.20;99.90;;;;;;5070518;28;20832;-73